sensor_id;sensor_type;location;lat;lon;timestamp;P1;durP1;ratioP1;P2;durP2;ratioP2
18738;SDS011;9498;51.862;19.460;2022-10-14T00:01:02;60.00;;;25.13;;
18738;SDS011;9498;51.862;19.460;2022-10-14T00:03:30;59.40;;;24.67;;
18738;SDS011;9498;51.862;19.460;2022-10-14T00:05:58;59.67;;;28.25;;
18738;SDS011;9498;51.862;19.460;2022-10-14T00:08:25;68.43;;;25.70;;
18738;SDS011;9498;51.862;19.460;2022-10-14T00:10:52;63.03;;;25.73;;
18738;SDS011;9498;51.862;19.460;2022-10-14T00:13:20;56.47;;;25.43;;
18738;SDS011;9498;51.862;19.460;2022-10-14T00:15:47;61.63;;;25.23;;
18738;SDS011;9498;51.862;19.460;2022-10-14T00:18:14;55.77;;;24.27;;
18738;SDS011;9498;51.862;19.460;2022-10-14T00:20:43;63.00;;;26.07;;
18738;SDS011;9498;51.862;19.460;2022-10-14T00:23:19;63.93;;;25.20;;
18738;SDS011;9498;51.862;19.460;2022-10-14T00:25:46;61.13;;;25.90;;
18738;SDS011;9498;51.862;19.460;2022-10-14T00:28:13;58.03;;;25.57;;
18738;SDS011;9498;51.862;19.460;2022-10-14T00:30:40;60.70;;;24.63;;
18738;SDS011;9498;51.862;19.460;2022-10-14T00:33:07;65.70;;;25.90;;
18738;SDS011;9498;51.862;19.460;2022-10-14T00:35:35;70.57;;;29.52;;
18738;SDS011;9498;51.862;19.460;2022-10-14T00:38:03;59.87;;;24.87;;
18738;SDS011;9498;51.862;19.460;2022-10-14T00:40:30;58.53;;;24.63;;
18738;SDS011;9498;51.862;19.460;2022-10-14T00:42:58;64.67;;;25.23;;
18738;SDS011;9498;51.862;19.460;2022-10-14T00:45:25;57.73;;;24.80;;
18738;SDS011;9498;51.862;19.460;2022-10-14T00:47:52;57.23;;;24.20;;
18738;SDS011;9498;51.862;19.460;2022-10-14T00:50:20;60.97;;;25.83;;
18738;SDS011;9498;51.862;19.460;2022-10-14T00:52:47;58.13;;;25.63;;
18738;SDS011;9498;51.862;19.460;2022-10-14T00:55:17;67.17;;;27.23;;
18738;SDS011;9498;51.862;19.460;2022-10-14T00:57:44;63.13;;;27.10;;
18738;SDS011;9498;51.862;19.460;2022-10-14T01:00:13;66.07;;;28.57;;
18738;SDS011;9498;51.862;19.460;2022-10-14T01:02:40;63.10;;;26.60;;
18738;SDS011;9498;51.862;19.460;2022-10-14T01:05:08;67.43;;;26.93;;
18738;SDS011;9498;51.862;19.460;2022-10-14T01:07:41;68.43;;;27.83;;
18738;SDS011;9498;51.862;19.460;2022-10-14T01:10:12;74.23;;;30.10;;
18738;SDS011;9498;51.862;19.460;2022-10-14T01:12:45;83.70;;;30.40;;
18738;SDS011;9498;51.862;19.460;2022-10-14T01:15:16;73.23;;;31.80;;
18738;SDS011;9498;51.862;19.460;2022-10-14T01:17:48;78.63;;;32.97;;
18738;SDS011;9498;51.862;19.460;2022-10-14T01:23:09;77.03;;;29.47;;
18738;SDS011;9498;51.862;19.460;2022-10-14T01:25:42;73.57;;;30.20;;
18738;SDS011;9498;51.862;19.460;2022-10-14T01:28:17;69.50;;;29.43;;
18738;SDS011;9498;51.862;19.460;2022-10-14T01:30:48;75.97;;;30.00;;
18738;SDS011;9498;51.862;19.460;2022-10-14T01:33:18;73.13;;;28.90;;
18738;SDS011;9498;51.862;19.460;2022-10-14T01:35:54;75.25;;;31.60;;
18738;SDS011;9498;51.862;19.460;2022-10-14T01:38:23;73.27;;;28.40;;
18738;SDS011;9498;51.862;19.460;2022-10-14T01:40:52;70.33;;;28.37;;
18738;SDS011;9498;51.862;19.460;2022-10-14T01:43:22;67.77;;;27.07;;
18738;SDS011;9498;51.862;19.460;2022-10-14T01:45:51;74.87;;;29.27;;
18738;SDS011;9498;51.862;19.460;2022-10-14T01:48:20;71.13;;;28.43;;
18738;SDS011;9498;51.862;19.460;2022-10-14T01:50:49;72.53;;;27.27;;
18738;SDS011;9498;51.862;19.460;2022-10-14T01:53:18;67.87;;;29.00;;
18738;SDS011;9498;51.862;19.460;2022-10-14T01:55:46;68.07;;;28.93;;
18738;SDS011;9498;51.862;19.460;2022-10-14T01:58:15;74.00;;;29.80;;
18738;SDS011;9498;51.862;19.460;2022-10-14T02:00:43;77.60;;;29.80;;
18738;SDS011;9498;51.862;19.460;2022-10-14T02:03:13;77.47;;;30.93;;
18738;SDS011;9498;51.862;19.460;2022-10-14T02:05:42;72.47;;;29.13;;
18738;SDS011;9498;51.862;19.460;2022-10-14T02:08:11;75.43;;;29.33;;
18738;SDS011;9498;51.862;19.460;2022-10-14T02:10:47;68.80;;;28.50;;
18738;SDS011;9498;51.862;19.460;2022-10-14T02:13:23;69.87;;;28.90;;
18738;SDS011;9498;51.862;19.460;2022-10-14T02:15:55;73.97;;;29.07;;
18738;SDS011;9498;51.862;19.460;2022-10-14T02:18:27;70.43;;;27.83;;
18738;SDS011;9498;51.862;19.460;2022-10-14T02:20:58;70.50;;;28.20;;
18738;SDS011;9498;51.862;19.460;2022-10-14T02:23:29;70.07;;;30.67;;
18738;SDS011;9498;51.862;19.460;2022-10-14T02:25:58;76.60;;;30.60;;
18738;SDS011;9498;51.862;19.460;2022-10-14T02:28:26;70.77;;;30.13;;
18738;SDS011;9498;51.862;19.460;2022-10-14T02:30:54;67.10;;;30.00;;
18738;SDS011;9498;51.862;19.460;2022-10-14T02:33:23;75.97;;;31.70;;
18738;SDS011;9498;51.862;19.460;2022-10-14T02:35:53;74.40;;;29.73;;
18738;SDS011;9498;51.862;19.460;2022-10-14T02:38:22;71.13;;;30.07;;
18738;SDS011;9498;51.862;19.460;2022-10-14T02:40:50;67.13;;;29.60;;
18738;SDS011;9498;51.862;19.460;2022-10-14T02:43:18;70.63;;;28.63;;
18738;SDS011;9498;51.862;19.460;2022-10-14T02:45:45;65.80;;;26.67;;
18738;SDS011;9498;51.862;19.460;2022-10-14T02:48:12;74.17;;;29.67;;
18738;SDS011;9498;51.862;19.460;2022-10-14T02:50:40;75.90;;;28.63;;
18738;SDS011;9498;51.862;19.460;2022-10-14T02:53:08;61.10;;;27.10;;
18738;SDS011;9498;51.862;19.460;2022-10-14T02:55:40;71.10;;;29.63;;
18738;SDS011;9498;51.862;19.460;2022-10-14T02:58:07;70.33;;;28.63;;
18738;SDS011;9498;51.862;19.460;2022-10-14T03:00:34;72.90;;;30.27;;
18738;SDS011;9498;51.862;19.460;2022-10-14T03:03:01;63.67;;;28.53;;
18738;SDS011;9498;51.862;19.460;2022-10-14T03:05:29;74.50;;;31.10;;
18738;SDS011;9498;51.862;19.460;2022-10-14T03:07:56;74.03;;;29.97;;
18738;SDS011;9498;51.862;19.460;2022-10-14T03:10:25;82.90;;;31.23;;
18738;SDS011;9498;51.862;19.460;2022-10-14T03:12:52;77.40;;;30.83;;
18738;SDS011;9498;51.862;19.460;2022-10-14T03:15:19;76.87;;;31.40;;
18738;SDS011;9498;51.862;19.460;2022-10-14T03:17:46;80.97;;;31.37;;
18738;SDS011;9498;51.862;19.460;2022-10-14T03:20:14;74.73;;;30.53;;
18738;SDS011;9498;51.862;19.460;2022-10-14T03:22:41;82.30;;;31.47;;
18738;SDS011;9498;51.862;19.460;2022-10-14T03:25:08;74.77;;;30.63;;
18738;SDS011;9498;51.862;19.460;2022-10-14T03:27:37;77.07;;;31.03;;
18738;SDS011;9498;51.862;19.460;2022-10-14T03:30:05;67.60;;;29.00;;
18738;SDS011;9498;51.862;19.460;2022-10-14T03:32:33;70.67;;;29.27;;
18738;SDS011;9498;51.862;19.460;2022-10-14T03:35:00;71.10;;;30.93;;
18738;SDS011;9498;51.862;19.460;2022-10-14T03:37:27;67.80;;;28.90;;
18738;SDS011;9498;51.862;19.460;2022-10-14T03:39:54;70.87;;;30.23;;
18738;SDS011;9498;51.862;19.460;2022-10-14T03:42:22;66.27;;;29.47;;
18738;SDS011;9498;51.862;19.460;2022-10-14T03:44:50;64.87;;;28.93;;
18738;SDS011;9498;51.862;19.460;2022-10-14T03:47:17;66.33;;;28.07;;
18738;SDS011;9498;51.862;19.460;2022-10-14T03:49:45;67.50;;;27.07;;
18738;SDS011;9498;51.862;19.460;2022-10-14T03:52:12;90.10;;;36.50;;
18738;SDS011;9498;51.862;19.460;2022-10-14T03:54:40;72.23;;;30.80;;
18738;SDS011;9498;51.862;19.460;2022-10-14T03:57:07;83.37;;;30.00;;
18738;SDS011;9498;51.862;19.460;2022-10-14T03:59:34;72.53;;;30.00;;
18738;SDS011;9498;51.862;19.460;2022-10-14T04:02:03;69.57;;;30.10;;
18738;SDS011;9498;51.862;19.460;2022-10-14T04:04:30;79.17;;;31.20;;
18738;SDS011;9498;51.862;19.460;2022-10-14T04:06:57;86.07;;;32.90;;
18738;SDS011;9498;51.862;19.460;2022-10-14T04:09:24;81.37;;;33.07;;
18738;SDS011;9498;51.862;19.460;2022-10-14T04:11:53;80.77;;;32.53;;
18738;SDS011;9498;51.862;19.460;2022-10-14T04:14:21;78.93;;;32.60;;
18738;SDS011;9498;51.862;19.460;2022-10-14T04:16:48;80.37;;;32.17;;
18738;SDS011;9498;51.862;19.460;2022-10-14T04:19:17;77.00;;;31.50;;
18738;SDS011;9498;51.862;19.460;2022-10-14T04:21:44;78.70;;;31.37;;
18738;SDS011;9498;51.862;19.460;2022-10-14T04:24:12;85.45;;;37.38;;
18738;SDS011;9498;51.862;19.460;2022-10-14T04:26:39;79.87;;;34.37;;
18738;SDS011;9498;51.862;19.460;2022-10-14T04:29:06;79.53;;;32.07;;
18738;SDS011;9498;51.862;19.460;2022-10-14T04:31:33;81.90;;;31.83;;
18738;SDS011;9498;51.862;19.460;2022-10-14T04:34:00;77.40;;;32.73;;
18738;SDS011;9498;51.862;19.460;2022-10-14T04:36:29;84.30;;;32.83;;
18738;SDS011;9498;51.862;19.460;2022-10-14T04:38:56;81.83;;;32.07;;
18738;SDS011;9498;51.862;19.460;2022-10-14T04:41:23;77.40;;;31.90;;
18738;SDS011;9498;51.862;19.460;2022-10-14T04:43:51;80.97;;;31.97;;
18738;SDS011;9498;51.862;19.460;2022-10-14T04:46:18;82.90;;;33.13;;
18738;SDS011;9498;51.862;19.460;2022-10-14T04:48:46;73.07;;;30.83;;
18738;SDS011;9498;51.862;19.460;2022-10-14T04:51:13;74.70;;;30.87;;
18738;SDS011;9498;51.862;19.460;2022-10-14T04:53:41;83.13;;;33.17;;
18738;SDS011;9498;51.862;19.460;2022-10-14T04:56:09;73.20;;;30.30;;
18738;SDS011;9498;51.862;19.460;2022-10-14T04:58:36;74.93;;;30.33;;
18738;SDS011;9498;51.862;19.460;2022-10-14T05:01:03;75.13;;;30.53;;
18738;SDS011;9498;51.862;19.460;2022-10-14T05:03:30;75.57;;;30.67;;
18738;SDS011;9498;51.862;19.460;2022-10-14T05:05:58;73.10;;;31.83;;
18738;SDS011;9498;51.862;19.460;2022-10-14T05:08:25;79.33;;;30.83;;
18738;SDS011;9498;51.862;19.460;2022-10-14T05:10:54;77.10;;;30.77;;
18738;SDS011;9498;51.862;19.460;2022-10-14T05:13:21;78.67;;;31.33;;
18738;SDS011;9498;51.862;19.460;2022-10-14T05:15:48;76.67;;;30.73;;
18738;SDS011;9498;51.862;19.460;2022-10-14T05:18:15;80.67;;;32.33;;
18738;SDS011;9498;51.862;19.460;2022-10-14T05:20:42;77.37;;;31.33;;
18738;SDS011;9498;51.862;19.460;2022-10-14T05:23:10;82.87;;;32.83;;
18738;SDS011;9498;51.862;19.460;2022-10-14T05:25:37;72.80;;;31.00;;
18738;SDS011;9498;51.862;19.460;2022-10-14T05:28:06;77.67;;;30.13;;
18738;SDS011;9498;51.862;19.460;2022-10-14T05:30:33;76.20;;;29.33;;
18738;SDS011;9498;51.862;19.460;2022-10-14T05:33:00;74.20;;;30.20;;
18738;SDS011;9498;51.862;19.460;2022-10-14T05:35:28;79.10;;;32.33;;
18738;SDS011;9498;51.862;19.460;2022-10-14T05:37:55;78.23;;;32.23;;
18738;SDS011;9498;51.862;19.460;2022-10-14T05:40:22;82.27;;;32.83;;
18738;SDS011;9498;51.862;19.460;2022-10-14T05:42:50;83.23;;;34.30;;
18738;SDS011;9498;51.862;19.460;2022-10-14T05:45:18;86.37;;;32.57;;
18738;SDS011;9498;51.862;19.460;2022-10-14T05:47:46;92.97;;;35.83;;
18738;SDS011;9498;51.862;19.460;2022-10-14T05:50:13;79.07;;;32.40;;
18738;SDS011;9498;51.862;19.460;2022-10-14T05:52:40;79.27;;;32.00;;
18738;SDS011;9498;51.862;19.460;2022-10-14T05:55:08;93.07;;;35.63;;
18738;SDS011;9498;51.862;19.460;2022-10-14T05:57:35;93.63;;;36.20;;
18738;SDS011;9498;51.862;19.460;2022-10-14T06:00:02;92.70;;;37.10;;
18738;SDS011;9498;51.862;19.460;2022-10-14T06:02:32;96.00;;;37.23;;
18738;SDS011;9498;51.862;19.460;2022-10-14T06:04:59;100.43;;;37.83;;
18738;SDS011;9498;51.862;19.460;2022-10-14T06:07:27;102.47;;;39.27;;
18738;SDS011;9498;51.862;19.460;2022-10-14T06:09:54;105.57;;;39.10;;
18738;SDS011;9498;51.862;19.460;2022-10-14T06:12:21;107.93;;;39.17;;
18738;SDS011;9498;51.862;19.460;2022-10-14T06:14:48;112.20;;;41.67;;
18738;SDS011;9498;51.862;19.460;2022-10-14T06:17:15;116.87;;;41.87;;
18738;SDS011;9498;51.862;19.460;2022-10-14T06:19:44;120.03;;;42.33;;
18738;SDS011;9498;51.862;19.460;2022-10-14T06:22:11;112.57;;;42.10;;
18738;SDS011;9498;51.862;19.460;2022-10-14T06:24:38;108.60;;;39.97;;
18738;SDS011;9498;51.862;19.460;2022-10-14T06:27:06;140.00;;;45.57;;
18738;SDS011;9498;51.862;19.460;2022-10-14T06:29:33;112.23;;;42.23;;
18738;SDS011;9498;51.862;19.460;2022-10-14T06:32:03;108.03;;;43.67;;
18738;SDS011;9498;51.862;19.460;2022-10-14T06:34:30;126.63;;;45.37;;
18738;SDS011;9498;51.862;19.460;2022-10-14T06:36:59;113.87;;;44.07;;
18738;SDS011;9498;51.862;19.460;2022-10-14T06:39:27;123.17;;;43.30;;
18738;SDS011;9498;51.862;19.460;2022-10-14T06:41:54;125.17;;;44.43;;
18738;SDS011;9498;51.862;19.460;2022-10-14T06:44:21;113.50;;;43.53;;
18738;SDS011;9498;51.862;19.460;2022-10-14T06:46:48;131.40;;;44.70;;
18738;SDS011;9498;51.862;19.460;2022-10-14T06:49:16;122.80;;;46.20;;
18738;SDS011;9498;51.862;19.460;2022-10-14T06:51:43;129.50;;;47.63;;
18738;SDS011;9498;51.862;19.460;2022-10-14T06:54:11;136.77;;;48.83;;
18738;SDS011;9498;51.862;19.460;2022-10-14T06:56:39;136.50;;;49.17;;
18738;SDS011;9498;51.862;19.460;2022-10-14T06:59:06;141.02;;;51.33;;
18738;SDS011;9498;51.862;19.460;2022-10-14T07:01:33;131.93;;;48.67;;
18738;SDS011;9498;51.862;19.460;2022-10-14T07:04:00;139.57;;;48.90;;
18738;SDS011;9498;51.862;19.460;2022-10-14T07:06:27;135.57;;;47.30;;
18738;SDS011;9498;51.862;19.460;2022-10-14T07:08:54;137.07;;;47.87;;
18738;SDS011;9498;51.862;19.460;2022-10-14T07:11:23;126.70;;;45.20;;
18738;SDS011;9498;51.862;19.460;2022-10-14T07:13:50;124.50;;;45.57;;
18738;SDS011;9498;51.862;19.460;2022-10-14T07:16:18;129.77;;;47.50;;
18738;SDS011;9498;51.862;19.460;2022-10-14T07:18:45;120.67;;;47.63;;
18738;SDS011;9498;51.862;19.460;2022-10-14T07:21:12;139.60;;;51.20;;
18738;SDS011;9498;51.862;19.460;2022-10-14T07:23:39;157.13;;;51.60;;
18738;SDS011;9498;51.862;19.460;2022-10-14T07:26:07;147.60;;;51.53;;
18738;SDS011;9498;51.862;19.460;2022-10-14T07:28:35;149.63;;;49.47;;
18738;SDS011;9498;51.862;19.460;2022-10-14T07:31:03;132.83;;;47.50;;
18738;SDS011;9498;51.862;19.460;2022-10-14T07:33:31;134.87;;;49.47;;
18738;SDS011;9498;51.862;19.460;2022-10-14T07:35:59;169.73;;;56.40;;
18738;SDS011;9498;51.862;19.460;2022-10-14T07:38:27;154.47;;;51.50;;
18738;SDS011;9498;51.862;19.460;2022-10-14T07:40:55;166.60;;;55.10;;
18738;SDS011;9498;51.862;19.460;2022-10-14T07:43:23;158.60;;;51.93;;
18738;SDS011;9498;51.862;19.460;2022-10-14T07:45:51;138.90;;;49.83;;
18738;SDS011;9498;51.862;19.460;2022-10-14T07:48:25;168.37;;;53.83;;
18738;SDS011;9498;51.862;19.460;2022-10-14T07:50:52;164.00;;;55.57;;
18738;SDS011;9498;51.862;19.460;2022-10-14T07:53:19;166.07;;;53.93;;
18738;SDS011;9498;51.862;19.460;2022-10-14T07:55:46;154.67;;;52.73;;
18738;SDS011;9498;51.862;19.460;2022-10-14T07:58:17;162.23;;;52.87;;
18738;SDS011;9498;51.862;19.460;2022-10-14T08:00:45;145.73;;;50.73;;
18738;SDS011;9498;51.862;19.460;2022-10-14T08:03:13;158.47;;;52.23;;
18738;SDS011;9498;51.862;19.460;2022-10-14T08:05:41;148.20;;;49.57;;
18738;SDS011;9498;51.862;19.460;2022-10-14T08:08:08;142.17;;;49.87;;
18738;SDS011;9498;51.862;19.460;2022-10-14T08:10:36;166.80;;;53.33;;
18738;SDS011;9498;51.862;19.460;2022-10-14T08:13:03;166.27;;;53.20;;
18738;SDS011;9498;51.862;19.460;2022-10-14T08:15:34;171.83;;;54.60;;
18738;SDS011;9498;51.862;19.460;2022-10-14T08:18:03;171.40;;;54.70;;
18738;SDS011;9498;51.862;19.460;2022-10-14T08:20:31;174.03;;;55.97;;
18738;SDS011;9498;51.862;19.460;2022-10-14T08:22:59;162.03;;;54.17;;
18738;SDS011;9498;51.862;19.460;2022-10-14T08:25:26;176.07;;;53.63;;
18738;SDS011;9498;51.862;19.460;2022-10-14T08:27:53;163.87;;;54.57;;
18738;SDS011;9498;51.862;19.460;2022-10-14T08:30:21;150.13;;;51.13;;
18738;SDS011;9498;51.862;19.460;2022-10-14T08:32:49;147.63;;;47.67;;
18738;SDS011;9498;51.862;19.460;2022-10-14T08:35:16;138.27;;;48.60;;
18738;SDS011;9498;51.862;19.460;2022-10-14T08:37:52;128.33;;;45.00;;
18738;SDS011;9498;51.862;19.460;2022-10-14T08:40:20;110.07;;;40.13;;
18738;SDS011;9498;51.862;19.460;2022-10-14T08:42:49;106.90;;;40.83;;
18738;SDS011;9498;51.862;19.460;2022-10-14T08:45:17;108.80;;;40.53;;
18738;SDS011;9498;51.862;19.460;2022-10-14T08:47:45;109.27;;;40.50;;
18738;SDS011;9498;51.862;19.460;2022-10-14T08:50:17;94.40;;;37.87;;
18738;SDS011;9498;51.862;19.460;2022-10-14T08:52:47;103.63;;;41.10;;
18738;SDS011;9498;51.862;19.460;2022-10-14T08:55:18;96.73;;;38.83;;
18738;SDS011;9498;51.862;19.460;2022-10-14T08:57:48;104.83;;;36.87;;
18738;SDS011;9498;51.862;19.460;2022-10-14T09:00:17;91.83;;;36.63;;
18738;SDS011;9498;51.862;19.460;2022-10-14T09:02:46;84.00;;;36.00;;
18738;SDS011;9498;51.862;19.460;2022-10-14T09:05:14;83.70;;;33.47;;
18738;SDS011;9498;51.862;19.460;2022-10-14T09:07:41;79.40;;;31.67;;
18738;SDS011;9498;51.862;19.460;2022-10-14T09:10:13;73.90;;;30.73;;
18738;SDS011;9498;51.862;19.460;2022-10-14T09:12:44;66.37;;;28.70;;
18738;SDS011;9498;51.862;19.460;2022-10-14T09:15:15;68.73;;;29.80;;
18738;SDS011;9498;51.862;19.460;2022-10-14T09:17:45;71.43;;;29.20;;
18738;SDS011;9498;51.862;19.460;2022-10-14T09:20:17;61.80;;;27.10;;
18738;SDS011;9498;51.862;19.460;2022-10-14T09:22:45;62.47;;;27.43;;
18738;SDS011;9498;51.862;19.460;2022-10-14T09:25:17;72.77;;;27.67;;
18738;SDS011;9498;51.862;19.460;2022-10-14T09:27:45;68.63;;;27.63;;
18738;SDS011;9498;51.862;19.460;2022-10-14T09:30:12;60.37;;;25.87;;
18738;SDS011;9498;51.862;19.460;2022-10-14T09:32:41;53.30;;;24.50;;
18738;SDS011;9498;51.862;19.460;2022-10-14T09:35:12;59.30;;;23.57;;
18738;SDS011;9498;51.862;19.460;2022-10-14T09:37:39;58.17;;;25.53;;
18738;SDS011;9498;51.862;19.460;2022-10-14T09:40:09;66.63;;;26.00;;
18738;SDS011;9498;51.862;19.460;2022-10-14T09:42:43;59.23;;;25.63;;
18738;SDS011;9498;51.862;19.460;2022-10-14T09:45:14;59.20;;;25.97;;
18738;SDS011;9498;51.862;19.460;2022-10-14T09:47:45;62.60;;;26.17;;
18738;SDS011;9498;51.862;19.460;2022-10-14T09:50:19;55.60;;;25.37;;
18738;SDS011;9498;51.862;19.460;2022-10-14T09:52:48;61.43;;;26.30;;
18738;SDS011;9498;51.862;19.460;2022-10-14T09:55:17;61.23;;;27.67;;
18738;SDS011;9498;51.862;19.460;2022-10-14T09:57:46;68.40;;;30.63;;
18738;SDS011;9498;51.862;19.460;2022-10-14T10:00:23;69.80;;;29.70;;
18738;SDS011;9498;51.862;19.460;2022-10-14T10:02:51;68.68;;;32.15;;
18738;SDS011;9498;51.862;19.460;2022-10-14T10:05:22;70.03;;;33.30;;
18738;SDS011;9498;51.862;19.460;2022-10-14T10:08:04;67.63;;;32.08;;
18738;SDS011;9498;51.862;19.460;2022-10-14T10:10:31;68.40;;;29.87;;
18738;SDS011;9498;51.862;19.460;2022-10-14T10:13:02;64.53;;;30.10;;
18738;SDS011;9498;51.862;19.460;2022-10-14T10:15:29;73.97;;;31.67;;
18738;SDS011;9498;51.862;19.460;2022-10-14T10:17:57;73.70;;;32.17;;
18738;SDS011;9498;51.862;19.460;2022-10-14T10:20:25;63.90;;;29.57;;
18738;SDS011;9498;51.862;19.460;2022-10-14T10:23:15;66.60;;;29.77;;
18738;SDS011;9498;51.862;19.460;2022-10-14T10:25:46;73.53;;;31.60;;
18738;SDS011;9498;51.862;19.460;2022-10-14T10:28:16;68.33;;;30.93;;
18738;SDS011;9498;51.862;19.460;2022-10-14T10:30:47;65.30;;;29.93;;
18738;SDS011;9498;51.862;19.460;2022-10-14T10:33:21;68.17;;;28.83;;
18738;SDS011;9498;51.862;19.460;2022-10-14T10:35:58;68.27;;;30.47;;
18738;SDS011;9498;51.862;19.460;2022-10-14T10:38:28;69.97;;;31.27;;
18738;SDS011;9498;51.862;19.460;2022-10-14T10:40:59;78.57;;;33.33;;
18738;SDS011;9498;51.862;19.460;2022-10-14T10:43:35;77.63;;;32.13;;
18738;SDS011;9498;51.862;19.460;2022-10-14T10:46:07;73.57;;;36.35;;
18738;SDS011;9498;51.862;19.460;2022-10-14T10:48:37;72.60;;;33.10;;
18738;SDS011;9498;51.862;19.460;2022-10-14T10:51:07;73.90;;;32.53;;
18738;SDS011;9498;51.862;19.460;2022-10-14T10:53:39;76.90;;;33.00;;
18738;SDS011;9498;51.862;19.460;2022-10-14T10:56:13;73.63;;;33.30;;
18738;SDS011;9498;51.862;19.460;2022-10-14T10:58:47;79.38;;;35.50;;
18738;SDS011;9498;51.862;19.460;2022-10-14T11:01:23;74.07;;;33.87;;
18738;SDS011;9498;51.862;19.460;2022-10-14T11:03:58;73.77;;;32.43;;
18738;SDS011;9498;51.862;19.460;2022-10-14T11:06:28;72.97;;;32.93;;
18738;SDS011;9498;51.862;19.460;2022-10-14T11:09:15;75.80;;;32.10;;
18738;SDS011;9498;51.862;19.460;2022-10-14T11:12:05;79.07;;;34.00;;
18738;SDS011;9498;51.862;19.460;2022-10-14T11:14:49;77.67;;;33.37;;
18738;SDS011;9498;51.862;19.460;2022-10-14T11:17:21;70.57;;;33.37;;
18738;SDS011;9498;51.862;19.460;2022-10-14T11:19:53;77.90;;;34.13;;
18738;SDS011;9498;51.862;19.460;2022-10-14T11:22:28;79.80;;;33.50;;
18738;SDS011;9498;51.862;19.460;2022-10-14T11:24:58;71.53;;;33.33;;
18738;SDS011;9498;51.862;19.460;2022-10-14T11:27:28;79.10;;;36.28;;
18738;SDS011;9498;51.862;19.460;2022-10-14T11:32:44;77.40;;;33.37;;
18738;SDS011;9498;51.862;19.460;2022-10-14T11:35:16;69.37;;;33.33;;
18738;SDS011;9498;51.862;19.460;2022-10-14T11:37:47;69.53;;;31.83;;
18738;SDS011;9498;51.862;19.460;2022-10-14T11:40:18;77.53;;;35.63;;
18738;SDS011;9498;51.862;19.460;2022-10-14T11:42:52;77.53;;;33.37;;
18738;SDS011;9498;51.862;19.460;2022-10-14T11:45:33;67.50;;;30.40;;
18738;SDS011;9498;51.862;19.460;2022-10-14T11:48:07;74.33;;;32.63;;
18738;SDS011;9498;51.862;19.460;2022-10-14T11:50:37;68.27;;;32.10;;
18738;SDS011;9498;51.862;19.460;2022-10-14T11:53:07;73.53;;;33.03;;
18738;SDS011;9498;51.862;19.460;2022-10-14T11:55:38;69.50;;;35.28;;
18738;SDS011;9498;51.862;19.460;2022-10-14T11:58:09;67.07;;;32.03;;
18738;SDS011;9498;51.862;19.460;2022-10-14T12:00:38;70.27;;;32.90;;
18738;SDS011;9498;51.862;19.460;2022-10-14T12:03:10;68.60;;;31.70;;
18738;SDS011;9498;51.862;19.460;2022-10-14T12:05:40;61.40;;;30.73;;
18738;SDS011;9498;51.862;19.460;2022-10-14T12:08:13;66.63;;;32.35;;
18738;SDS011;9498;51.862;19.460;2022-10-14T12:10:43;59.50;;;28.53;;
18738;SDS011;9498;51.862;19.460;2022-10-14T12:13:13;62.87;;;27.70;;
18738;SDS011;9498;51.862;19.460;2022-10-14T12:15:41;64.13;;;29.00;;
18738;SDS011;9498;51.862;19.460;2022-10-14T12:18:12;62.03;;;29.97;;
18738;SDS011;9498;51.862;19.460;2022-10-14T12:20:39;64.70;;;30.07;;
18738;SDS011;9498;51.862;19.460;2022-10-14T12:23:12;72.13;;;29.67;;
18738;SDS011;9498;51.862;19.460;2022-10-14T12:25:42;66.97;;;33.15;;
18738;SDS011;9498;51.862;19.460;2022-10-14T12:28:11;66.80;;;30.47;;
18738;SDS011;9498;51.862;19.460;2022-10-14T12:30:40;69.93;;;30.30;;
18738;SDS011;9498;51.862;19.460;2022-10-14T12:33:08;62.33;;;28.90;;
18738;SDS011;9498;51.862;19.460;2022-10-14T12:35:47;55.67;;;26.73;;
18738;SDS011;9498;51.862;19.460;2022-10-14T12:38:16;63.95;;;30.83;;
18738;SDS011;9498;51.862;19.460;2022-10-14T12:40:44;53.80;;;26.83;;
18738;SDS011;9498;51.862;19.460;2022-10-14T12:43:13;58.03;;;25.77;;
18738;SDS011;9498;51.862;19.460;2022-10-14T12:48:36;49.83;;;22.47;;
18738;SDS011;9498;51.862;19.460;2022-10-14T12:51:11;53.03;;;24.80;;
18738;SDS011;9498;51.862;19.460;2022-10-14T12:53:45;60.03;;;25.13;;
18738;SDS011;9498;51.862;19.460;2022-10-14T12:56:25;46.10;;;22.00;;
18738;SDS011;9498;51.862;19.460;2022-10-14T12:58:54;44.47;;;21.10;;
18738;SDS011;9498;51.862;19.460;2022-10-14T13:01:25;38.53;;;18.13;;
18738;SDS011;9498;51.862;19.460;2022-10-14T13:03:53;47.77;;;18.10;;
18738;SDS011;9498;51.862;19.460;2022-10-14T13:06:29;52.30;;;18.13;;
18738;SDS011;9498;51.862;19.460;2022-10-14T13:09:16;35.87;;;16.53;;
18738;SDS011;9498;51.862;19.460;2022-10-14T13:11:44;39.60;;;17.87;;
18738;SDS011;9498;51.862;19.460;2022-10-14T13:14:19;59.73;;;19.13;;
18738;SDS011;9498;51.862;19.460;2022-10-14T13:16:54;39.00;;;19.20;;
18738;SDS011;9498;51.862;19.460;2022-10-14T13:19:38;36.37;;;18.70;;
18738;SDS011;9498;51.862;19.460;2022-10-14T13:22:33;41.30;;;18.37;;
18738;SDS011;9498;51.862;19.460;2022-10-14T13:25:02;43.33;;;18.60;;
18738;SDS011;9498;51.862;19.460;2022-10-14T13:27:33;37.07;;;17.70;;
18738;SDS011;9498;51.862;19.460;2022-10-14T13:30:03;39.20;;;18.37;;
18738;SDS011;9498;51.862;19.460;2022-10-14T13:32:33;35.90;;;16.57;;
18738;SDS011;9498;51.862;19.460;2022-10-14T13:35:06;35.67;;;18.03;;
18738;SDS011;9498;51.862;19.460;2022-10-14T13:37:39;39.53;;;18.37;;
18738;SDS011;9498;51.862;19.460;2022-10-14T13:40:18;40.13;;;18.43;;
18738;SDS011;9498;51.862;19.460;2022-10-14T13:42:48;37.43;;;17.20;;
18738;SDS011;9498;51.862;19.460;2022-10-14T13:45:16;40.87;;;18.43;;
18738;SDS011;9498;51.862;19.460;2022-10-14T13:47:45;39.23;;;18.23;;
18738;SDS011;9498;51.862;19.460;2022-10-14T13:50:14;44.30;;;19.20;;
18738;SDS011;9498;51.862;19.460;2022-10-14T13:52:44;40.07;;;19.73;;
18738;SDS011;9498;51.862;19.460;2022-10-14T13:55:14;46.37;;;20.03;;
18738;SDS011;9498;51.862;19.460;2022-10-14T13:57:41;42.87;;;20.67;;
18738;SDS011;9498;51.862;19.460;2022-10-14T14:00:24;42.70;;;20.63;;
18738;SDS011;9498;51.862;19.460;2022-10-14T14:02:52;42.43;;;19.20;;
18738;SDS011;9498;51.862;19.460;2022-10-14T14:05:20;49.37;;;22.27;;
18738;SDS011;9498;51.862;19.460;2022-10-14T14:07:49;49.10;;;20.70;;
18738;SDS011;9498;51.862;19.460;2022-10-14T14:10:17;47.63;;;21.23;;
18738;SDS011;9498;51.862;19.460;2022-10-14T14:12:45;46.00;;;19.53;;
18738;SDS011;9498;51.862;19.460;2022-10-14T14:15:17;45.97;;;20.60;;
18738;SDS011;9498;51.862;19.460;2022-10-14T14:17:51;44.93;;;20.00;;
18738;SDS011;9498;51.862;19.460;2022-10-14T14:20:19;40.97;;;20.40;;
18738;SDS011;9498;51.862;19.460;2022-10-14T14:22:47;49.70;;;20.87;;
18738;SDS011;9498;51.862;19.460;2022-10-14T14:25:20;44.77;;;20.50;;
18738;SDS011;9498;51.862;19.460;2022-10-14T14:27:49;41.23;;;18.93;;
18738;SDS011;9498;51.862;19.460;2022-10-14T14:30:19;40.67;;;18.50;;
18738;SDS011;9498;51.862;19.460;2022-10-14T14:32:47;41.17;;;19.50;;
18738;SDS011;9498;51.862;19.460;2022-10-14T14:35:16;47.83;;;19.17;;
18738;SDS011;9498;51.862;19.460;2022-10-14T14:37:44;39.20;;;18.60;;
18738;SDS011;9498;51.862;19.460;2022-10-14T14:40:16;38.20;;;17.87;;